Aérodrome :







RETROUVEZ-NOUS SUR...

 
LOGIN :

S'inscrire | Disclaimer

   EN    FR    IT 

 









Légende :    VFR   VFR Marginal   IFR   IFR Intensif   IFR Très Intensif
Visi : 
Plafond : 
>= 8 km
>= 3000ft
5 à 8 km
1000 à 3000 ft
1500m à 5 km
500 à 1000 ft
800 à 1500m
200 à 500 ft
< 800m
< 200 ft
Symboles :   Orages  Brouillard  Fortes neiges  Fortes précipitations  Vent > 20 kt






- Altitude de l'aérodrome : 198 ft
- Code IATA : STM


SBSN - Maestro Wilson Fonseca Int.

DERNIER METAR :
  • 241700Z 07004KT 9999 VCSH FEW015 SCT016 FEW020TCU 26/24 Q1010

METARs EXPIRÉS :
  • 241600Z 08007KT 9999 VCSH SCT016 FEW020TCU 31/26 Q1011
  • 241500Z 10005KT 9999 FEW023 30/25 Q1012

TAF TAF SBSN
Valide du 24 à 18h jusqu'au 25 à 18h UTC


241500Z 2418/2518 09010KT 9999 FEW020 FEW025TCU TX30/2418Z TN25/2509Z
BECMG 2422/2424 FEW017
BECMG 2504/2506 16005KT SCT015
TEMPO 2506/2512 4000 RA SCT012 FEW020TCU
BECMG 2513/2515 10010KT
BECMG 2515/2517 FEW020 FEW025TCU RMK PGZ



MET'MAP, la Météo Aéronautique d'un coup d'oeil ! - Copyright ORBIFLY Décembre 2007 - Disclaimer

ORBIFLY MET'MAP TEAM :

Programmation & Développement : Alexandra Zaïnal
Sur une idée originale de : Baudouin d'Aumeries
Assistance à la programmation : Marc-Olivier Méhu
Soutien technique & logistique : Manuel Goepfert

Contact : metmap@orbifly.com




SOURCES & CREDITS :

   NOAA